Terminal Aerodrome Forecast
Issued by NWS

Home | Current Version | Previous Version | Text Only | Print | Product List | Glossary On
Versions: 1 2 3 4 5 6 7 8 9 10 11 12 13 14 15 16 17 18 19 20 21 22 23 24 25 26 27 28 29 30 31 32
547
FTUS46 KMTR 220340 AAA
TAFSFO
TAF AMD
KSFO 220340Z 2204/2306 16013KT 6SM -SHRA BKN035 OVC040
     FM220500 15020G25KT 5SM RA OVC025 WS020/19040KT
     FM220800 17026G34KT 3SM +RA OVC025 WS020/19060KT
     FM221100 17018G25KT 5SM SHRA BKN020 OVC030
     FM221500 21013KT 6SM -SHRA OVC040
     FM222000 22018G27KT P6SM -SHRA VCTS OVC050CB=

USA.gov is the U.S. government's official web portal to all federal, state and local government web resources and services.